sensor_id;sensor_type;location;lat;lon;timestamp;P1;durP1;ratioP1;P2;durP2;ratioP2
46322;SDS011;32044;52.386;13.278;2024-03-06T00:00:40;39.10;;;24.08;;
46322;SDS011;32044;52.386;13.278;2024-03-06T00:03:08;39.70;;;23.50;;
46322;SDS011;32044;52.386;13.278;2024-03-06T00:05:35;39.15;;;23.88;;
46322;SDS011;32044;52.386;13.278;2024-03-06T00:08:03;38.40;;;23.88;;
46322;SDS011;32044;52.386;13.278;2024-03-06T00:10:32;39.40;;;23.60;;
46322;SDS011;32044;52.386;13.278;2024-03-06T00:13:00;40.67;;;23.33;;
46322;SDS011;32044;52.386;13.278;2024-03-06T00:15:27;39.33;;;23.13;;
46322;SDS011;32044;52.386;13.278;2024-03-06T00:17:55;38.58;;;22.80;;
46322;SDS011;32044;52.386;13.278;2024-03-06T00:20:22;40.60;;;25.33;;
46322;SDS011;32044;52.386;13.278;2024-03-06T00:22:50;44.88;;;25.38;;
46322;SDS011;32044;52.386;13.278;2024-03-06T00:25:18;44.22;;;26.25;;
46322;SDS011;32044;52.386;13.278;2024-03-06T00:27:46;39.47;;;24.35;;
46322;SDS011;32044;52.386;13.278;2024-03-06T00:30:14;38.30;;;24.65;;
46322;SDS011;32044;52.386;13.278;2024-03-06T00:32:42;38.45;;;23.48;;
46322;SDS011;32044;52.386;13.278;2024-03-06T00:35:09;40.35;;;24.27;;
46322;SDS011;32044;52.386;13.278;2024-03-06T00:37:38;50.10;;;27.55;;
46322;SDS011;32044;52.386;13.278;2024-03-06T00:40:06;45.97;;;27.15;;
46322;SDS011;32044;52.386;13.278;2024-03-06T00:42:35;43.45;;;25.15;;
46322;SDS011;32044;52.386;13.278;2024-03-06T00:45:04;46.80;;;27.85;;
46322;SDS011;32044;52.386;13.278;2024-03-06T00:47:32;41.72;;;26.20;;
46322;SDS011;32044;52.386;13.278;2024-03-06T00:50:01;40.70;;;25.58;;
46322;SDS011;32044;52.386;13.278;2024-03-06T00:52:29;37.97;;;24.00;;
46322;SDS011;32044;52.386;13.278;2024-03-06T00:54:56;45.50;;;27.33;;
46322;SDS011;32044;52.386;13.278;2024-03-06T00:57:24;44.80;;;26.75;;
46322;SDS011;32044;52.386;13.278;2024-03-06T00:59:51;44.63;;;27.27;;
46322;SDS011;32044;52.386;13.278;2024-03-06T01:02:20;42.97;;;24.85;;
46322;SDS011;32044;52.386;13.278;2024-03-06T01:04:48;39.75;;;25.13;;
46322;SDS011;32044;52.386;13.278;2024-03-06T01:07:16;41.65;;;24.38;;
46322;SDS011;32044;52.386;13.278;2024-03-06T01:09:44;42.85;;;24.85;;
46322;SDS011;32044;52.386;13.278;2024-03-06T01:12:12;46.47;;;27.27;;
46322;SDS011;32044;52.386;13.278;2024-03-06T01:14:39;46.25;;;27.25;;
46322;SDS011;32044;52.386;13.278;2024-03-06T01:17:08;43.30;;;25.40;;
46322;SDS011;32044;52.386;13.278;2024-03-06T01:19:37;43.97;;;26.10;;
46322;SDS011;32044;52.386;13.278;2024-03-06T01:22:05;48.30;;;27.83;;
46322;SDS011;32044;52.386;13.278;2024-03-06T01:24:34;45.00;;;27.27;;
46322;SDS011;32044;52.386;13.278;2024-03-06T01:27:01;42.17;;;27.08;;
46322;SDS011;32044;52.386;13.278;2024-03-06T01:29:29;43.80;;;26.83;;
46322;SDS011;32044;52.386;13.278;2024-03-06T01:31:57;46.08;;;26.17;;
46322;SDS011;32044;52.386;13.278;2024-03-06T01:34:24;44.85;;;26.30;;
46322;SDS011;32044;52.386;13.278;2024-03-06T01:36:53;44.50;;;26.10;;
46322;SDS011;32044;52.386;13.278;2024-03-06T01:39:21;41.63;;;24.50;;
46322;SDS011;32044;52.386;13.278;2024-03-06T01:41:49;39.47;;;23.50;;
46322;SDS011;32044;52.386;13.278;2024-03-06T01:44:18;40.45;;;24.70;;
46322;SDS011;32044;52.386;13.278;2024-03-06T01:46:45;39.35;;;23.48;;
46322;SDS011;32044;52.386;13.278;2024-03-06T01:49:14;47.83;;;27.30;;
46322;SDS011;32044;52.386;13.278;2024-03-06T01:51:59;43.60;;;24.85;;
46322;SDS011;32044;52.386;13.278;2024-03-06T01:54:27;39.88;;;24.00;;
46322;SDS011;32044;52.386;13.278;2024-03-06T01:56:55;43.78;;;25.92;;
46322;SDS011;32044;52.386;13.278;2024-03-06T01:59:23;42.15;;;24.75;;
46322;SDS011;32044;52.386;13.278;2024-03-06T02:02:02;47.03;;;25.92;;
46322;SDS011;32044;52.386;13.278;2024-03-06T02:04:30;46.40;;;26.10;;
46322;SDS011;32044;52.386;13.278;2024-03-06T02:07:00;46.75;;;27.48;;
46322;SDS011;32044;52.386;13.278;2024-03-06T02:09:28;39.85;;;24.40;;
46322;SDS011;32044;52.386;13.278;2024-03-06T02:11:55;43.70;;;25.63;;
46322;SDS011;32044;52.386;13.278;2024-03-06T02:14:23;46.63;;;26.02;;
46322;SDS011;32044;52.386;13.278;2024-03-06T02:16:51;41.22;;;25.38;;
46322;SDS011;32044;52.386;13.278;2024-03-06T02:19:18;44.10;;;27.20;;
46322;SDS011;32044;52.386;13.278;2024-03-06T02:21:47;43.50;;;25.17;;
46322;SDS011;32044;52.386;13.278;2024-03-06T02:24:14;41.33;;;24.67;;
46322;SDS011;32044;52.386;13.278;2024-03-06T02:26:42;44.38;;;25.73;;
46322;SDS011;32044;52.386;13.278;2024-03-06T02:29:09;43.45;;;26.27;;
46322;SDS011;32044;52.386;13.278;2024-03-06T02:31:37;41.60;;;24.40;;
46322;SDS011;32044;52.386;13.278;2024-03-06T02:34:05;39.90;;;24.15;;
46322;SDS011;32044;52.386;13.278;2024-03-06T02:36:33;40.00;;;23.17;;
46322;SDS011;32044;52.386;13.278;2024-03-06T02:39:03;38.67;;;22.80;;
46322;SDS011;32044;52.386;13.278;2024-03-06T02:41:35;41.83;;;25.27;;
46322;SDS011;32044;52.386;13.278;2024-03-06T02:44:03;42.40;;;26.08;;
46322;SDS011;32044;52.386;13.278;2024-03-06T02:46:31;44.63;;;26.35;;
46322;SDS011;32044;52.386;13.278;2024-03-06T02:48:59;47.67;;;27.55;;
46322;SDS011;32044;52.386;13.278;2024-03-06T02:51:26;45.10;;;26.60;;
46322;SDS011;32044;52.386;13.278;2024-03-06T02:53:54;44.72;;;25.75;;
46322;SDS011;32044;52.386;13.278;2024-03-06T02:56:23;43.83;;;25.33;;
46322;SDS011;32044;52.386;13.278;2024-03-06T02:58:50;39.65;;;24.17;;
46322;SDS011;32044;52.386;13.278;2024-03-06T03:01:18;41.70;;;23.95;;
46322;SDS011;32044;52.386;13.278;2024-03-06T03:03:45;42.92;;;24.27;;
46322;SDS011;32044;52.386;13.278;2024-03-06T03:06:13;39.50;;;23.08;;
46322;SDS011;32044;52.386;13.278;2024-03-06T03:08:41;41.53;;;25.58;;
46322;SDS011;32044;52.386;13.278;2024-03-06T03:11:08;43.53;;;24.75;;
46322;SDS011;32044;52.386;13.278;2024-03-06T03:13:37;47.03;;;27.10;;
46322;SDS011;32044;52.386;13.278;2024-03-06T03:16:05;47.78;;;28.15;;
46322;SDS011;32044;52.386;13.278;2024-03-06T03:18:33;43.30;;;24.85;;
46322;SDS011;32044;52.386;13.278;2024-03-06T03:21:00;40.97;;;23.85;;
46322;SDS011;32044;52.386;13.278;2024-03-06T03:23:28;40.17;;;24.25;;
46322;SDS011;32044;52.386;13.278;2024-03-06T03:25:56;39.90;;;23.55;;
46322;SDS011;32044;52.386;13.278;2024-03-06T03:28:23;41.95;;;25.35;;
46322;SDS011;32044;52.386;13.278;2024-03-06T03:30:52;42.95;;;23.70;;
46322;SDS011;32044;52.386;13.278;2024-03-06T03:33:20;39.67;;;23.33;;
46322;SDS011;32044;52.386;13.278;2024-03-06T03:35:47;41.38;;;24.17;;
46322;SDS011;32044;52.386;13.278;2024-03-06T03:38:15;41.47;;;24.33;;
46322;SDS011;32044;52.386;13.278;2024-03-06T03:40:43;44.75;;;25.88;;
46322;SDS011;32044;52.386;13.278;2024-03-06T03:43:10;46.40;;;27.50;;
46322;SDS011;32044;52.386;13.278;2024-03-06T03:45:38;48.95;;;26.80;;
46322;SDS011;32044;52.386;13.278;2024-03-06T03:48:07;44.80;;;27.25;;
46322;SDS011;32044;52.386;13.278;2024-03-06T03:50:34;44.05;;;26.58;;
46322;SDS011;32044;52.386;13.278;2024-03-06T03:53:02;45.60;;;26.38;;
46322;SDS011;32044;52.386;13.278;2024-03-06T03:55:30;45.30;;;26.38;;
46322;SDS011;32044;52.386;13.278;2024-03-06T03:57:58;47.00;;;26.40;;
46322;SDS011;32044;52.386;13.278;2024-03-06T04:00:26;46.55;;;26.63;;
46322;SDS011;32044;52.386;13.278;2024-03-06T04:02:53;47.10;;;24.40;;
46322;SDS011;32044;52.386;13.278;2024-03-06T04:05:22;47.03;;;25.70;;
46322;SDS011;32044;52.386;13.278;2024-03-06T04:07:50;43.08;;;24.95;;
46322;SDS011;32044;52.386;13.278;2024-03-06T04:10:18;42.58;;;24.92;;
46322;SDS011;32044;52.386;13.278;2024-03-06T04:12:45;45.28;;;24.65;;
46322;SDS011;32044;52.386;13.278;2024-03-06T04:15:13;39.85;;;24.90;;
46322;SDS011;32044;52.386;13.278;2024-03-06T04:17:40;49.38;;;27.05;;
46322;SDS011;32044;52.386;13.278;2024-03-06T04:20:08;49.08;;;27.20;;
46322;SDS011;32044;52.386;13.278;2024-03-06T04:22:39;47.50;;;26.08;;
46322;SDS011;32044;52.386;13.278;2024-03-06T04:25:08;45.38;;;24.58;;
46322;SDS011;32044;52.386;13.278;2024-03-06T04:27:36;44.50;;;24.48;;
46322;SDS011;32044;52.386;13.278;2024-03-06T04:30:03;50.10;;;27.10;;
46322;SDS011;32044;52.386;13.278;2024-03-06T04:32:32;46.10;;;25.83;;
46322;SDS011;32044;52.386;13.278;2024-03-06T04:34:59;44.47;;;24.98;;
46322;SDS011;32044;52.386;13.278;2024-03-06T04:37:27;45.88;;;24.25;;
46322;SDS011;32044;52.386;13.278;2024-03-06T04:39:57;43.08;;;24.08;;
46322;SDS011;32044;52.386;13.278;2024-03-06T04:42:24;46.78;;;25.38;;
46322;SDS011;32044;52.386;13.278;2024-03-06T04:44:52;47.72;;;26.42;;
46322;SDS011;32044;52.386;13.278;2024-03-06T04:47:19;50.13;;;26.40;;
46322;SDS011;32044;52.386;13.278;2024-03-06T04:49:47;46.05;;;25.27;;
46322;SDS011;32044;52.386;13.278;2024-03-06T04:52:16;47.50;;;26.33;;
46322;SDS011;32044;52.386;13.278;2024-03-06T04:54:43;47.88;;;26.42;;
46322;SDS011;32044;52.386;13.278;2024-03-06T04:57:12;46.00;;;26.20;;
46322;SDS011;32044;52.386;13.278;2024-03-06T04:59:40;42.50;;;23.73;;
46322;SDS011;32044;52.386;13.278;2024-03-06T05:02:07;45.70;;;25.02;;
46322;SDS011;32044;52.386;13.278;2024-03-06T05:04:35;43.72;;;25.77;;
46322;SDS011;32044;52.386;13.278;2024-03-06T05:07:21;44.83;;;23.80;;
46322;SDS011;32044;52.386;13.278;2024-03-06T05:10:06;41.80;;;23.08;;
46322;SDS011;32044;52.386;13.278;2024-03-06T05:12:54;40.40;;;23.15;;
46322;SDS011;32044;52.386;13.278;2024-03-06T05:15:38;41.17;;;23.33;;
46322;SDS011;32044;52.386;13.278;2024-03-06T05:18:24;41.55;;;24.83;;
46322;SDS011;32044;52.386;13.278;2024-03-06T05:21:09;41.72;;;24.38;;
46322;SDS011;32044;52.386;13.278;2024-03-06T05:23:55;44.53;;;25.23;;
46322;SDS011;32044;52.386;13.278;2024-03-06T05:26:40;47.40;;;26.23;;
46322;SDS011;32044;52.386;13.278;2024-03-06T05:29:27;40.78;;;24.05;;
46322;SDS011;32044;52.386;13.278;2024-03-06T05:32:12;42.40;;;25.40;;
46322;SDS011;32044;52.386;13.278;2024-03-06T05:34:57;43.42;;;24.27;;
46322;SDS011;32044;52.386;13.278;2024-03-06T05:37:42;44.38;;;24.88;;
46322;SDS011;32044;52.386;13.278;2024-03-06T05:40:28;50.15;;;25.60;;
46322;SDS011;32044;52.386;13.278;2024-03-06T05:43:14;46.30;;;24.77;;
46322;SDS011;32044;52.386;13.278;2024-03-06T05:46:00;42.88;;;26.02;;
46322;SDS011;32044;52.386;13.278;2024-03-06T05:48:45;38.15;;;23.40;;
46322;SDS011;32044;52.386;13.278;2024-03-06T05:51:30;41.08;;;22.98;;
46322;SDS011;32044;52.386;13.278;2024-03-06T05:54:15;50.80;;;26.05;;
46322;SDS011;32044;52.386;13.278;2024-03-06T05:57:00;52.45;;;26.73;;
46322;SDS011;32044;52.386;13.278;2024-03-06T05:59:46;46.25;;;26.38;;
46322;SDS011;32044;52.386;13.278;2024-03-06T06:02:16;41.85;;;24.02;;
46322;SDS011;32044;52.386;13.278;2024-03-06T06:04:45;48.15;;;26.98;;
46322;SDS011;32044;52.386;13.278;2024-03-06T06:07:30;53.70;;;30.27;;
46322;SDS011;32044;52.386;13.278;2024-03-06T06:09:57;58.25;;;29.88;;
46322;SDS011;32044;52.386;13.278;2024-03-06T06:12:25;49.53;;;28.08;;
46322;SDS011;32044;52.386;13.278;2024-03-06T06:14:52;45.45;;;26.40;;
46322;SDS011;32044;52.386;13.278;2024-03-06T06:17:21;49.35;;;28.05;;
46322;SDS011;32044;52.386;13.278;2024-03-06T06:22:19;40.63;;;24.38;;
46322;SDS011;32044;52.386;13.278;2024-03-06T06:24:46;41.83;;;24.45;;
46322;SDS011;32044;52.386;13.278;2024-03-06T06:27:15;39.03;;;24.38;;
46322;SDS011;32044;52.386;13.278;2024-03-06T06:29:42;41.42;;;24.50;;
46322;SDS011;32044;52.386;13.278;2024-03-06T06:32:10;39.60;;;24.70;;
46322;SDS011;32044;52.386;13.278;2024-03-06T06:34:38;42.95;;;24.40;;
46322;SDS011;32044;52.386;13.278;2024-03-06T06:37:06;38.90;;;22.27;;
46322;SDS011;32044;52.386;13.278;2024-03-06T06:39:33;37.63;;;22.50;;
46322;SDS011;32044;52.386;13.278;2024-03-06T06:42:01;35.22;;;21.40;;
46322;SDS011;32044;52.386;13.278;2024-03-06T06:44:29;36.00;;;22.58;;
46322;SDS011;32044;52.386;13.278;2024-03-06T06:46:57;33.92;;;20.98;;
46322;SDS011;32044;52.386;13.278;2024-03-06T06:49:24;31.13;;;19.35;;
46322;SDS011;32044;52.386;13.278;2024-03-06T06:51:53;34.97;;;20.67;;
46322;SDS011;32044;52.386;13.278;2024-03-06T06:54:21;35.70;;;21.38;;
46322;SDS011;32044;52.386;13.278;2024-03-06T06:56:48;35.13;;;22.35;;
46322;SDS011;32044;52.386;13.278;2024-03-06T06:59:16;32.05;;;20.58;;
46322;SDS011;32044;52.386;13.278;2024-03-06T07:01:49;35.40;;;20.05;;
46322;SDS011;32044;52.386;13.278;2024-03-06T07:04:17;34.90;;;20.75;;
46322;SDS011;32044;52.386;13.278;2024-03-06T07:06:46;32.72;;;19.50;;
46322;SDS011;32044;52.386;13.278;2024-03-06T07:09:15;31.08;;;19.55;;
46322;SDS011;32044;52.386;13.278;2024-03-06T07:11:43;140.40;;;25.92;;
46322;SDS011;32044;52.386;13.278;2024-03-06T07:14:11;33.15;;;20.13;;
46322;SDS011;32044;52.386;13.278;2024-03-06T07:16:41;28.27;;;18.17;;
46322;SDS011;32044;52.386;13.278;2024-03-06T07:19:09;32.33;;;19.88;;
46322;SDS011;32044;52.386;13.278;2024-03-06T07:21:37;31.65;;;20.13;;
46322;SDS011;32044;52.386;13.278;2024-03-06T07:24:05;36.63;;;21.45;;
46322;SDS011;32044;52.386;13.278;2024-03-06T07:26:34;36.33;;;21.42;;
46322;SDS011;32044;52.386;13.278;2024-03-06T07:29:02;31.13;;;19.75;;
46322;SDS011;32044;52.386;13.278;2024-03-06T07:31:30;33.47;;;21.60;;
46322;SDS011;32044;52.386;13.278;2024-03-06T07:33:58;33.85;;;20.73;;
46322;SDS011;32044;52.386;13.278;2024-03-06T07:36:26;29.60;;;19.45;;
46322;SDS011;32044;52.386;13.278;2024-03-06T07:38:54;33.72;;;21.30;;
46322;SDS011;32044;52.386;13.278;2024-03-06T07:41:21;32.95;;;21.65;;
46322;SDS011;32044;52.386;13.278;2024-03-06T07:43:51;35.63;;;21.30;;
46322;SDS011;32044;52.386;13.278;2024-03-06T07:46:18;32.35;;;21.67;;
46322;SDS011;32044;52.386;13.278;2024-03-06T07:48:46;32.80;;;20.80;;
46322;SDS011;32044;52.386;13.278;2024-03-06T07:51:14;31.25;;;21.45;;
46322;SDS011;32044;52.386;13.278;2024-03-06T07:53:41;35.78;;;22.65;;
46322;SDS011;32044;52.386;13.278;2024-03-06T07:56:09;32.63;;;21.40;;
46322;SDS011;32044;52.386;13.278;2024-03-06T07:58:39;36.90;;;20.48;;
46322;SDS011;32044;52.386;13.278;2024-03-06T08:01:08;36.08;;;21.95;;
46322;SDS011;32044;52.386;13.278;2024-03-06T08:03:35;32.85;;;20.58;;
46322;SDS011;32044;52.386;13.278;2024-03-06T08:06:03;38.47;;;23.10;;
46322;SDS011;32044;52.386;13.278;2024-03-06T08:08:31;34.45;;;21.23;;
46322;SDS011;32044;52.386;13.278;2024-03-06T08:10:59;34.78;;;22.13;;
46322;SDS011;32044;52.386;13.278;2024-03-06T08:13:27;31.13;;;21.42;;
46322;SDS011;32044;52.386;13.278;2024-03-06T08:15:55;32.10;;;20.88;;
46322;SDS011;32044;52.386;13.278;2024-03-06T08:18:24;31.75;;;21.05;;
46322;SDS011;32044;52.386;13.278;2024-03-06T08:20:51;27.70;;;20.40;;
46322;SDS011;32044;52.386;13.278;2024-03-06T08:23:20;30.92;;;20.83;;
46322;SDS011;32044;52.386;13.278;2024-03-06T08:25:47;28.45;;;19.23;;
46322;SDS011;32044;52.386;13.278;2024-03-06T08:28:15;27.60;;;19.40;;
46322;SDS011;32044;52.386;13.278;2024-03-06T08:30:42;28.80;;;19.92;;
46322;SDS011;32044;52.386;13.278;2024-03-06T08:33:11;26.67;;;18.15;;
46322;SDS011;32044;52.386;13.278;2024-03-06T08:35:40;28.42;;;20.35;;
46322;SDS011;32044;52.386;13.278;2024-03-06T08:38:08;29.02;;;19.67;;
46322;SDS011;32044;52.386;13.278;2024-03-06T08:40:35;27.60;;;18.88;;
46322;SDS011;32044;52.386;13.278;2024-03-06T08:43:06;26.45;;;18.90;;
46322;SDS011;32044;52.386;13.278;2024-03-06T08:45:35;29.23;;;20.35;;
46322;SDS011;32044;52.386;13.278;2024-03-06T08:48:02;27.83;;;20.48;;
46322;SDS011;32044;52.386;13.278;2024-03-06T08:50:30;25.13;;;18.58;;
46322;SDS011;32044;52.386;13.278;2024-03-06T08:52:59;27.95;;;19.83;;
46322;SDS011;32044;52.386;13.278;2024-03-06T08:55:28;29.35;;;19.67;;
46322;SDS011;32044;52.386;13.278;2024-03-06T08:57:55;27.88;;;17.75;;
46322;SDS011;32044;52.386;13.278;2024-03-06T09:00:24;26.48;;;18.63;;
46322;SDS011;32044;52.386;13.278;2024-03-06T09:02:53;30.50;;;17.20;;
46322;SDS011;32044;52.386;13.278;2024-03-06T09:05:20;25.60;;;17.40;;
46322;SDS011;32044;52.386;13.278;2024-03-06T09:07:48;28.67;;;18.00;;
46322;SDS011;32044;52.386;13.278;2024-03-06T09:10:17;25.83;;;17.63;;
46322;SDS011;32044;52.386;13.278;2024-03-06T09:12:45;33.92;;;19.40;;
46322;SDS011;32044;52.386;13.278;2024-03-06T09:15:13;25.63;;;17.83;;
46322;SDS011;32044;52.386;13.278;2024-03-06T09:17:42;23.77;;;17.73;;
46322;SDS011;32044;52.386;13.278;2024-03-06T09:20:11;26.05;;;17.15;;
46322;SDS011;32044;52.386;13.278;2024-03-06T09:22:40;26.63;;;18.95;;
46322;SDS011;32044;52.386;13.278;2024-03-06T09:25:09;26.58;;;18.20;;
46322;SDS011;32044;52.386;13.278;2024-03-06T09:27:40;26.90;;;18.85;;
46322;SDS011;32044;52.386;13.278;2024-03-06T09:30:08;25.80;;;17.73;;
46322;SDS011;32044;52.386;13.278;2024-03-06T09:32:37;29.25;;;19.27;;
46322;SDS011;32044;52.386;13.278;2024-03-06T09:35:05;24.48;;;14.98;;
46322;SDS011;32044;52.386;13.278;2024-03-06T09:37:34;24.00;;;16.45;;
46322;SDS011;32044;52.386;13.278;2024-03-06T09:40:01;18.27;;;12.18;;
46322;SDS011;32044;52.386;13.278;2024-03-06T09:42:30;22.25;;;13.40;;
46322;SDS011;32044;52.386;13.278;2024-03-06T09:44:59;21.95;;;13.77;;
46322;SDS011;32044;52.386;13.278;2024-03-06T09:47:27;21.08;;;15.05;;
46322;SDS011;32044;52.386;13.278;2024-03-06T09:49:59;24.55;;;14.43;;
46322;SDS011;32044;52.386;13.278;2024-03-06T09:52:29;21.70;;;15.43;;
46322;SDS011;32044;52.386;13.278;2024-03-06T09:54:57;22.52;;;15.55;;
46322;SDS011;32044;52.386;13.278;2024-03-06T09:57:26;22.33;;;16.02;;
46322;SDS011;32044;52.386;13.278;2024-03-06T09:59:53;24.25;;;16.95;;
46322;SDS011;32044;52.386;13.278;2024-03-06T10:02:28;26.77;;;16.45;;
46322;SDS011;32044;52.386;13.278;2024-03-06T10:04:58;28.42;;;17.38;;
46322;SDS011;32044;52.386;13.278;2024-03-06T10:07:25;21.83;;;15.38;;
46322;SDS011;32044;52.386;13.278;2024-03-06T10:09:54;20.95;;;14.18;;
46322;SDS011;32044;52.386;13.278;2024-03-06T10:12:23;18.58;;;13.30;;
46322;SDS011;32044;52.386;13.278;2024-03-06T10:14:52;18.20;;;12.70;;
46322;SDS011;32044;52.386;13.278;2024-03-06T10:17:20;17.83;;;12.77;;
46322;SDS011;32044;52.386;13.278;2024-03-06T10:19:51;18.30;;;10.50;;
46322;SDS011;32044;52.386;13.278;2024-03-06T10:22:18;16.83;;;10.80;;
46322;SDS011;32044;52.386;13.278;2024-03-06T10:24:47;17.20;;;12.07;;
46322;SDS011;32044;52.386;13.278;2024-03-06T10:27:15;19.90;;;13.10;;
46322;SDS011;32044;52.386;13.278;2024-03-06T10:29:44;19.27;;;12.30;;
46322;SDS011;32044;52.386;13.278;2024-03-06T10:32:16;18.35;;;11.15;;
46322;SDS011;32044;52.386;13.278;2024-03-06T10:34:45;17.85;;;11.75;;
46322;SDS011;32044;52.386;13.278;2024-03-06T10:37:14;16.33;;;11.60;;
46322;SDS011;32044;52.386;13.278;2024-03-06T10:39:42;14.88;;;10.88;;
46322;SDS011;32044;52.386;13.278;2024-03-06T10:42:12;16.83;;;11.15;;
46322;SDS011;32044;52.386;13.278;2024-03-06T10:44:42;16.70;;;10.57;;
46322;SDS011;32044;52.386;13.278;2024-03-06T10:47:14;12.82;;;10.00;;
46322;SDS011;32044;52.386;13.278;2024-03-06T10:49:42;14.73;;;10.90;;
46322;SDS011;32044;52.386;13.278;2024-03-06T10:52:10;14.95;;;10.30;;
46322;SDS011;32044;52.386;13.278;2024-03-06T10:54:44;17.63;;;10.35;;
46322;SDS011;32044;52.386;13.278;2024-03-06T10:57:12;12.02;;;9.50;;
46322;SDS011;32044;52.386;13.278;2024-03-06T10:59:41;15.65;;;11.05;;
46322;SDS011;32044;52.386;13.278;2024-03-06T11:02:10;13.30;;;9.93;;
46322;SDS011;32044;52.386;13.278;2024-03-06T11:04:39;11.20;;;8.40;;
46322;SDS011;32044;52.386;13.278;2024-03-06T11:07:07;13.32;;;10.27;;
46322;SDS011;32044;52.386;13.278;2024-03-06T11:09:40;9.43;;;7.60;;
46322;SDS011;32044;52.386;13.278;2024-03-06T11:12:10;14.93;;;7.47;;
46322;SDS011;32044;52.386;13.278;2024-03-06T11:14:38;12.55;;;8.63;;
46322;SDS011;32044;52.386;13.278;2024-03-06T11:17:07;11.82;;;8.52;;
46322;SDS011;32044;52.386;13.278;2024-03-06T11:28:31;12.07;;;7.97;;
46322;SDS011;32044;52.386;13.278;2024-03-06T11:31:00;14.20;;;8.13;;
46322;SDS011;32044;52.386;13.278;2024-03-06T11:33:34;12.30;;;9.48;;
46322;SDS011;32044;52.386;13.278;2024-03-06T11:36:12;11.45;;;8.88;;
46322;SDS011;32044;52.386;13.278;2024-03-06T11:38:46;15.30;;;8.77;;
46322;SDS011;32044;52.386;13.278;2024-03-06T11:41:14;11.57;;;9.03;;
46322;SDS011;32044;52.386;13.278;2024-03-06T11:43:43;12.27;;;8.75;;
46322;SDS011;32044;52.386;13.278;2024-03-06T11:46:11;11.45;;;7.95;;
46322;SDS011;32044;52.386;13.278;2024-03-06T11:48:39;10.60;;;7.88;;
46322;SDS011;32044;52.386;13.278;2024-03-06T11:51:07;11.43;;;7.80;;
46322;SDS011;32044;52.386;13.278;2024-03-06T11:53:36;10.52;;;7.45;;
46322;SDS011;32044;52.386;13.278;2024-03-06T11:56:05;9.65;;;7.47;;
46322;SDS011;32044;52.386;13.278;2024-03-06T11:58:34;10.38;;;7.70;;
46322;SDS011;32044;52.386;13.278;2024-03-06T12:01:03;14.68;;;8.20;;
46322;SDS011;32044;52.386;13.278;2024-03-06T12:03:31;13.95;;;8.63;;
46322;SDS011;32044;52.386;13.278;2024-03-06T12:05:58;13.68;;;8.93;;
46322;SDS011;32044;52.386;13.278;2024-03-06T12:08:26;13.13;;;9.85;;
46322;SDS011;32044;52.386;13.278;2024-03-06T12:10:53;14.07;;;9.98;;
46322;SDS011;32044;52.386;13.278;2024-03-06T12:13:24;17.38;;;10.88;;
46322;SDS011;32044;52.386;13.278;2024-03-06T12:15:52;18.90;;;11.05;;
46322;SDS011;32044;52.386;13.278;2024-03-06T12:18:21;14.35;;;10.48;;
46322;SDS011;32044;52.386;13.278;2024-03-06T12:20:49;12.57;;;8.88;;
46322;SDS011;32044;52.386;13.278;2024-03-06T12:23:20;17.42;;;11.20;;
46322;SDS011;32044;52.386;13.278;2024-03-06T12:25:49;12.57;;;8.57;;
46322;SDS011;32044;52.386;13.278;2024-03-06T12:28:30;12.82;;;9.00;;
46322;SDS011;32044;52.386;13.278;2024-03-06T12:30:58;11.82;;;8.13;;
46322;SDS011;32044;52.386;13.278;2024-03-06T12:33:30;10.02;;;7.93;;
46322;SDS011;32044;52.386;13.278;2024-03-06T12:36:02;14.18;;;9.05;;
46322;SDS011;32044;52.386;13.278;2024-03-06T12:38:30;11.23;;;8.60;;
46322;SDS011;32044;52.386;13.278;2024-03-06T12:40:58;13.02;;;9.30;;
46322;SDS011;32044;52.386;13.278;2024-03-06T12:43:27;12.20;;;9.18;;
46322;SDS011;32044;52.386;13.278;2024-03-06T12:45:55;12.20;;;9.20;;
46322;SDS011;32044;52.386;13.278;2024-03-06T12:48:27;11.10;;;7.72;;
46322;SDS011;32044;52.386;13.278;2024-03-06T12:50:57;15.63;;;10.23;;
46322;SDS011;32044;52.386;13.278;2024-03-06T12:53:31;15.02;;;11.07;;
46322;SDS011;32044;52.386;13.278;2024-03-06T12:56:01;18.85;;;10.82;;
46322;SDS011;32044;52.386;13.278;2024-03-06T12:58:29;15.88;;;12.27;;
46322;SDS011;32044;52.386;13.278;2024-03-06T13:00:57;18.48;;;12.77;;
46322;SDS011;32044;52.386;13.278;2024-03-06T13:03:25;14.90;;;12.68;;
46322;SDS011;32044;52.386;13.278;2024-03-06T13:05:53;14.05;;;12.00;;
46322;SDS011;32044;52.386;13.278;2024-03-06T13:08:22;14.77;;;11.32;;
46322;SDS011;32044;52.386;13.278;2024-03-06T13:10:50;18.92;;;13.07;;
46322;SDS011;32044;52.386;13.278;2024-03-06T13:13:17;16.42;;;12.55;;
46322;SDS011;32044;52.386;13.278;2024-03-06T13:15:45;20.70;;;14.52;;
46322;SDS011;32044;52.386;13.278;2024-03-06T13:18:15;18.25;;;14.27;;
46322;SDS011;32044;52.386;13.278;2024-03-06T13:20:43;21.25;;;14.98;;
46322;SDS011;32044;52.386;13.278;2024-03-06T13:23:11;15.20;;;12.30;;
46322;SDS011;32044;52.386;13.278;2024-03-06T13:25:40;15.93;;;11.85;;
46322;SDS011;32044;52.386;13.278;2024-03-06T13:28:08;13.68;;;11.55;;
46322;SDS011;32044;52.386;13.278;2024-03-06T13:30:36;13.57;;;11.55;;
46322;SDS011;32044;52.386;13.278;2024-03-06T13:33:04;17.38;;;11.93;;
46322;SDS011;32044;52.386;13.278;2024-03-06T13:35:34;15.18;;;12.02;;
46322;SDS011;32044;52.386;13.278;2024-03-06T13:38:01;13.52;;;10.60;;
46322;SDS011;32044;52.386;13.278;2024-03-06T13:40:29;20.23;;;11.43;;
46322;SDS011;32044;52.386;13.278;2024-03-06T13:42:58;14.20;;;11.25;;
46322;SDS011;32044;52.386;13.278;2024-03-06T13:45:26;14.20;;;10.98;;
46322;SDS011;32044;52.386;13.278;2024-03-06T13:47:55;16.13;;;12.30;;
46322;SDS011;32044;52.386;13.278;2024-03-06T13:50:22;15.07;;;11.45;;
46322;SDS011;32044;52.386;13.278;2024-03-06T13:52:52;15.07;;;11.40;;
46322;SDS011;32044;52.386;13.278;2024-03-06T13:55:19;15.77;;;10.70;;
46322;SDS011;32044;52.386;13.278;2024-03-06T13:57:47;17.33;;;11.65;;
46322;SDS011;32044;52.386;13.278;2024-03-06T14:00:16;16.45;;;11.75;;
46322;SDS011;32044;52.386;13.278;2024-03-06T14:02:45;16.90;;;11.98;;
46322;SDS011;32044;52.386;13.278;2024-03-06T14:05:13;16.67;;;12.38;;
46322;SDS011;32044;52.386;13.278;2024-03-06T14:07:41;17.73;;;12.82;;
46322;SDS011;32044;52.386;13.278;2024-03-06T14:10:10;18.67;;;13.52;;
46322;SDS011;32044;52.386;13.278;2024-03-06T14:12:37;22.85;;;14.27;;
46322;SDS011;32044;52.386;13.278;2024-03-06T14:15:05;23.98;;;14.38;;
46322;SDS011;32044;52.386;13.278;2024-03-06T14:17:40;24.33;;;13.27;;
46322;SDS011;32044;52.386;13.278;2024-03-06T14:20:09;21.83;;;13.43;;
46322;SDS011;32044;52.386;13.278;2024-03-06T14:22:38;26.65;;;15.18;;
46322;SDS011;32044;52.386;13.278;2024-03-06T14:25:06;25.45;;;15.13;;
46322;SDS011;32044;52.386;13.278;2024-03-06T14:27:34;25.98;;;14.63;;
46322;SDS011;32044;52.386;13.278;2024-03-06T14:30:03;26.83;;;15.40;;
46322;SDS011;32044;52.386;13.278;2024-03-06T14:32:33;26.23;;;15.07;;
46322;SDS011;32044;52.386;13.278;2024-03-06T14:35:03;30.13;;;18.65;;